Terminal Aerodrome Forecast
Issued by NWS Twin Cities, MN

Home | Current Version | Previous Version | Text Only | Print | Product List | Glossary On
Versions: 1 2 3 4 5 6 7 8 9 10 11 12 13 14 15 16 17 18 19 20 21 22 23 24 25 26
000
FTUS43 KMPX 281120
TAFMSP
TAF
KMSP 281120Z 2812/0118 15005KT P6SM SKC
     FM281400 17007KT P6SM SCT250
     FM281900 17011G19KT P6SM SCT040 BKN090
     FM010300 17009KT P6SM OVC030
     FM011000 21006KT P6SM SCT030 BKN100
     FM011500 25007KT P6SM SCT030 SCT100=

USA.gov is the U.S. government's official web portal to all federal, state and local government web resources and services.